sensor_id;sensor_type;location;lat;lon;timestamp;temperature;humidity
41720;DHT22;27405;53.316;-6.294;2023-09-19T00:00:46;12.70;99.90
41720;DHT22;27405;53.316;-6.294;2023-09-19T00:03:12;12.80;99.90
41720;DHT22;27405;53.316;-6.294;2023-09-19T00:05:39;12.70;99.90
41720;DHT22;27405;53.316;-6.294;2023-09-19T00:08:05;12.80;99.90
41720;DHT22;27405;53.316;-6.294;2023-09-19T00:10:32;12.80;99.90
41720;DHT22;27405;53.316;-6.294;2023-09-19T00:13:04;12.80;99.90
41720;DHT22;27405;53.316;-6.294;2023-09-19T00:15:35;12.80;99.90
41720;DHT22;27405;53.316;-6.294;2023-09-19T00:18:02;12.80;99.90
41720;DHT22;27405;53.316;-6.294;2023-09-19T00:20:27;12.80;99.90
41720;DHT22;27405;53.316;-6.294;2023-09-19T00:22:55;12.80;99.90
41720;DHT22;27405;53.316;-6.294;2023-09-19T00:25:21;12.80;99.90
41720;DHT22;27405;53.316;-6.294;2023-09-19T00:27:47;12.80;99.90
41720;DHT22;27405;53.316;-6.294;2023-09-19T00:30:17;12.80;99.90
41720;DHT22;27405;53.316;-6.294;2023-09-19T00:32:50;12.80;99.90
41720;DHT22;27405;53.316;-6.294;2023-09-19T00:35:20;12.80;99.90
41720;DHT22;27405;53.316;-6.294;2023-09-19T00:37:47;12.80;99.90
41720;DHT22;27405;53.316;-6.294;2023-09-19T00:40:13;12.80;99.90
41720;DHT22;27405;53.316;-6.294;2023-09-19T00:42:41;12.80;99.90
41720;DHT22;27405;53.316;-6.294;2023-09-19T00:45:11;12.80;99.90
41720;DHT22;27405;53.316;-6.294;2023-09-19T00:47:42;12.80;99.90
41720;DHT22;27405;53.316;-6.294;2023-09-19T00:50:08;12.70;99.90
41720;DHT22;27405;53.316;-6.294;2023-09-19T00:52:36;12.70;99.90
41720;DHT22;27405;53.316;-6.294;2023-09-19T00:55:08;12.70;99.90
41720;DHT22;27405;53.316;-6.294;2023-09-19T00:57:36;12.70;99.90
41720;DHT22;27405;53.316;-6.294;2023-09-19T01:00:03;12.70;99.90
41720;DHT22;27405;53.316;-6.294;2023-09-19T01:02:34;12.70;99.90
41720;DHT22;27405;53.316;-6.294;2023-09-19T01:05:01;12.70;99.90
41720;DHT22;27405;53.316;-6.294;2023-09-19T01:07:27;12.70;99.90
41720;DHT22;27405;53.316;-6.294;2023-09-19T01:09:56;12.80;99.90
41720;DHT22;27405;53.316;-6.294;2023-09-19T01:12:30;12.70;99.90
41720;DHT22;27405;53.316;-6.294;2023-09-19T01:25:59;12.70;99.90
41720;DHT22;27405;53.316;-6.294;2023-09-19T01:30:57;12.80;99.90
41720;DHT22;27405;53.316;-6.294;2023-09-19T01:33:25;12.80;99.90
41720;DHT22;27405;53.316;-6.294;2023-09-19T01:35:52;12.80;99.90
41720;DHT22;27405;53.316;-6.294;2023-09-19T01:38:19;12.90;99.90
41720;DHT22;27405;53.316;-6.294;2023-09-19T01:41:00;12.90;99.90
41720;DHT22;27405;53.316;-6.294;2023-09-19T01:43:41;12.90;99.90
41720;DHT22;27405;53.316;-6.294;2023-09-19T01:46:30;12.90;99.90
41720;DHT22;27405;53.316;-6.294;2023-09-19T01:51:46;13.00;99.90
41720;DHT22;27405;53.316;-6.294;2023-09-19T01:54:20;13.00;99.90
41720;DHT22;27405;53.316;-6.294;2023-09-19T01:57:09;13.00;99.90
41720;DHT22;27405;53.316;-6.294;2023-09-19T01:59:54;13.00;99.90
41720;DHT22;27405;53.316;-6.294;2023-09-19T02:02:23;13.00;99.90
41720;DHT22;27405;53.316;-6.294;2023-09-19T02:04:49;13.00;99.90
41720;DHT22;27405;53.316;-6.294;2023-09-19T02:07:16;13.00;99.90
41720;DHT22;27405;53.316;-6.294;2023-09-19T02:09:42;13.00;99.90
41720;DHT22;27405;53.316;-6.294;2023-09-19T02:12:09;13.00;99.90
41720;DHT22;27405;53.316;-6.294;2023-09-19T02:14:35;13.00;99.90
41720;DHT22;27405;53.316;-6.294;2023-09-19T02:17:02;13.00;99.90
41720;DHT22;27405;53.316;-6.294;2023-09-19T02:19:32;13.10;99.90
41720;DHT22;27405;53.316;-6.294;2023-09-19T02:21:59;13.10;99.90
41720;DHT22;27405;53.316;-6.294;2023-09-19T02:24:25;13.10;99.90
41720;DHT22;27405;53.316;-6.294;2023-09-19T02:26:52;13.10;99.90
41720;DHT22;27405;53.316;-6.294;2023-09-19T02:29:18;13.10;99.90
41720;DHT22;27405;53.316;-6.294;2023-09-19T02:31:43;13.10;99.90
41720;DHT22;27405;53.316;-6.294;2023-09-19T02:34:11;13.10;99.90
41720;DHT22;27405;53.316;-6.294;2023-09-19T02:36:37;13.20;99.90
41720;DHT22;27405;53.316;-6.294;2023-09-19T02:39:03;13.20;99.90
41720;DHT22;27405;53.316;-6.294;2023-09-19T02:41:30;13.20;99.90
41720;DHT22;27405;53.316;-6.294;2023-09-19T02:43:58;13.20;99.90
41720;DHT22;27405;53.316;-6.294;2023-09-19T02:46:24;13.20;99.90
41720;DHT22;27405;53.316;-6.294;2023-09-19T02:48:50;13.20;99.90
41720;DHT22;27405;53.316;-6.294;2023-09-19T02:51:16;13.20;99.90
41720;DHT22;27405;53.316;-6.294;2023-09-19T02:53:41;13.30;99.90
41720;DHT22;27405;53.316;-6.294;2023-09-19T02:56:07;13.30;99.90
41720;DHT22;27405;53.316;-6.294;2023-09-19T02:58:35;13.30;99.90
41720;DHT22;27405;53.316;-6.294;2023-09-19T03:01:08;13.30;99.90
41720;DHT22;27405;53.316;-6.294;2023-09-19T03:03:35;13.30;99.90
41720;DHT22;27405;53.316;-6.294;2023-09-19T03:06:00;13.30;99.90
41720;DHT22;27405;53.316;-6.294;2023-09-19T03:08:29;13.20;99.90
41720;DHT22;27405;53.316;-6.294;2023-09-19T03:10:55;13.20;99.90
41720;DHT22;27405;53.316;-6.294;2023-09-19T03:13:20;13.20;99.90
41720;DHT22;27405;53.316;-6.294;2023-09-19T03:15:46;13.20;99.90
41720;DHT22;27405;53.316;-6.294;2023-09-19T03:18:12;13.20;99.90
41720;DHT22;27405;53.316;-6.294;2023-09-19T03:20:38;13.20;99.90
41720;DHT22;27405;53.316;-6.294;2023-09-19T03:23:04;13.20;99.90
41720;DHT22;27405;53.316;-6.294;2023-09-19T03:25:33;13.20;99.90
41720;DHT22;27405;53.316;-6.294;2023-09-19T03:27:59;13.30;99.90
41720;DHT22;27405;53.316;-6.294;2023-09-19T03:30:26;13.20;99.90
41720;DHT22;27405;53.316;-6.294;2023-09-19T03:32:52;13.30;99.90
41720;DHT22;27405;53.316;-6.294;2023-09-19T03:35:18;13.30;99.90
41720;DHT22;27405;53.316;-6.294;2023-09-19T03:37:44;13.30;99.90
41720;DHT22;27405;53.316;-6.294;2023-09-19T03:40:10;13.30;99.90
41720;DHT22;27405;53.316;-6.294;2023-09-19T03:42:40;13.30;99.90
41720;DHT22;27405;53.316;-6.294;2023-09-19T03:45:07;13.40;99.90
41720;DHT22;27405;53.316;-6.294;2023-09-19T03:47:36;13.40;99.90
41720;DHT22;27405;53.316;-6.294;2023-09-19T03:50:03;13.40;99.90
41720;DHT22;27405;53.316;-6.294;2023-09-19T03:52:28;13.40;99.90
41720;DHT22;27405;53.316;-6.294;2023-09-19T03:54:54;13.40;99.90
41720;DHT22;27405;53.316;-6.294;2023-09-19T03:57:20;13.50;99.90
41720;DHT22;27405;53.316;-6.294;2023-09-19T03:59:46;13.50;99.90
41720;DHT22;27405;53.316;-6.294;2023-09-19T04:02:13;13.50;99.90
41720;DHT22;27405;53.316;-6.294;2023-09-19T04:04:48;13.50;99.90
41720;DHT22;27405;53.316;-6.294;2023-09-19T04:07:13;13.60;99.90
41720;DHT22;27405;53.316;-6.294;2023-09-19T04:09:39;13.70;99.90
41720;DHT22;27405;53.316;-6.294;2023-09-19T04:12:05;13.70;99.90
41720;DHT22;27405;53.316;-6.294;2023-09-19T04:14:31;13.70;99.90
41720;DHT22;27405;53.316;-6.294;2023-09-19T04:16:56;13.70;99.90
41720;DHT22;27405;53.316;-6.294;2023-09-19T04:19:22;13.80;99.90
41720;DHT22;27405;53.316;-6.294;2023-09-19T04:21:48;13.80;99.90
41720;DHT22;27405;53.316;-6.294;2023-09-19T04:24:13;13.80;99.90
41720;DHT22;27405;53.316;-6.294;2023-09-19T04:26:39;13.90;99.90
41720;DHT22;27405;53.316;-6.294;2023-09-19T04:29:05;13.90;99.90
41720;DHT22;27405;53.316;-6.294;2023-09-19T04:31:31;14.00;99.90
41720;DHT22;27405;53.316;-6.294;2023-09-19T04:33:57;14.00;99.90
41720;DHT22;27405;53.316;-6.294;2023-09-19T04:36:24;14.10;99.90
41720;DHT22;27405;53.316;-6.294;2023-09-19T04:38:50;14.10;99.90
41720;DHT22;27405;53.316;-6.294;2023-09-19T04:41:16;14.10;99.90
41720;DHT22;27405;53.316;-6.294;2023-09-19T04:43:41;14.20;99.90
41720;DHT22;27405;53.316;-6.294;2023-09-19T04:46:07;14.20;99.90
41720;DHT22;27405;53.316;-6.294;2023-09-19T04:48:33;14.30;99.90
41720;DHT22;27405;53.316;-6.294;2023-09-19T04:51:00;14.30;99.90
41720;DHT22;27405;53.316;-6.294;2023-09-19T04:53:26;14.30;99.90
41720;DHT22;27405;53.316;-6.294;2023-09-19T04:55:53;14.30;99.90
41720;DHT22;27405;53.316;-6.294;2023-09-19T04:58:21;14.30;99.90
41720;DHT22;27405;53.316;-6.294;2023-09-19T05:00:47;14.30;99.90
41720;DHT22;27405;53.316;-6.294;2023-09-19T05:03:13;14.40;99.90
41720;DHT22;27405;53.316;-6.294;2023-09-19T05:05:38;14.40;99.90
41720;DHT22;27405;53.316;-6.294;2023-09-19T05:08:08;14.40;99.90
41720;DHT22;27405;53.316;-6.294;2023-09-19T05:10:35;14.50;99.90
41720;DHT22;27405;53.316;-6.294;2023-09-19T05:13:03;14.50;99.90
41720;DHT22;27405;53.316;-6.294;2023-09-19T05:15:30;14.60;99.90
41720;DHT22;27405;53.316;-6.294;2023-09-19T05:17:56;14.70;99.90
41720;DHT22;27405;53.316;-6.294;2023-09-19T05:20:22;14.70;99.90
41720;DHT22;27405;53.316;-6.294;2023-09-19T05:25:26;14.80;99.90
41720;DHT22;27405;53.316;-6.294;2023-09-19T05:27:56;14.80;99.90
41720;DHT22;27405;53.316;-6.294;2023-09-19T05:30:23;14.90;99.90
41720;DHT22;27405;53.316;-6.294;2023-09-19T05:32:49;14.90;99.90
41720;DHT22;27405;53.316;-6.294;2023-09-19T05:35:15;15.00;99.90
41720;DHT22;27405;53.316;-6.294;2023-09-19T05:37:41;15.00;99.90
41720;DHT22;27405;53.316;-6.294;2023-09-19T05:40:07;15.10;99.90
41720;DHT22;27405;53.316;-6.294;2023-09-19T05:42:38;15.10;99.90
41720;DHT22;27405;53.316;-6.294;2023-09-19T05:45:05;15.20;99.90
41720;DHT22;27405;53.316;-6.294;2023-09-19T05:47:32;15.30;99.90
41720;DHT22;27405;53.316;-6.294;2023-09-19T05:49:58;15.30;99.90
41720;DHT22;27405;53.316;-6.294;2023-09-19T05:52:25;15.30;99.90
41720;DHT22;27405;53.316;-6.294;2023-09-19T05:54:50;15.40;99.90
41720;DHT22;27405;53.316;-6.294;2023-09-19T05:57:16;15.40;99.90
41720;DHT22;27405;53.316;-6.294;2023-09-19T05:59:42;15.40;99.90
41720;DHT22;27405;53.316;-6.294;2023-09-19T06:02:08;15.40;99.90
41720;DHT22;27405;53.316;-6.294;2023-09-19T06:04:35;15.40;99.90
41720;DHT22;27405;53.316;-6.294;2023-09-19T06:07:01;15.40;99.90
41720;DHT22;27405;53.316;-6.294;2023-09-19T06:09:28;15.40;99.90
41720;DHT22;27405;53.316;-6.294;2023-09-19T06:11:54;15.50;99.90
41720;DHT22;27405;53.316;-6.294;2023-09-19T06:14:21;15.50;99.90
41720;DHT22;27405;53.316;-6.294;2023-09-19T06:16:47;15.50;99.90
41720;DHT22;27405;53.316;-6.294;2023-09-19T06:19:13;15.50;99.90
41720;DHT22;27405;53.316;-6.294;2023-09-19T06:21:39;15.50;99.90
41720;DHT22;27405;53.316;-6.294;2023-09-19T06:24:05;15.60;99.90
41720;DHT22;27405;53.316;-6.294;2023-09-19T06:26:31;15.60;99.90
41720;DHT22;27405;53.316;-6.294;2023-09-19T06:28:57;15.70;99.90
41720;DHT22;27405;53.316;-6.294;2023-09-19T06:31:25;15.70;99.90
41720;DHT22;27405;53.316;-6.294;2023-09-19T06:33:52;15.70;99.90
41720;DHT22;27405;53.316;-6.294;2023-09-19T06:36:18;15.80;99.90
41720;DHT22;27405;53.316;-6.294;2023-09-19T06:38:44;15.90;99.90
41720;DHT22;27405;53.316;-6.294;2023-09-19T06:41:10;15.90;99.90
41720;DHT22;27405;53.316;-6.294;2023-09-19T06:43:37;15.90;99.90
41720;DHT22;27405;53.316;-6.294;2023-09-19T06:46:04;16.00;99.90
41720;DHT22;27405;53.316;-6.294;2023-09-19T06:48:32;16.00;99.90
41720;DHT22;27405;53.316;-6.294;2023-09-19T06:50:59;16.10;99.90
41720;DHT22;27405;53.316;-6.294;2023-09-19T06:53:32;16.10;99.90
41720;DHT22;27405;53.316;-6.294;2023-09-19T06:56:00;16.20;99.90
41720;DHT22;27405;53.316;-6.294;2023-09-19T06:58:26;16.20;99.90
41720;DHT22;27405;53.316;-6.294;2023-09-19T07:00:51;16.20;99.90
41720;DHT22;27405;53.316;-6.294;2023-09-19T07:03:17;16.30;99.90
41720;DHT22;27405;53.316;-6.294;2023-09-19T07:05:48;16.30;99.90
41720;DHT22;27405;53.316;-6.294;2023-09-19T07:08:15;16.30;99.90
41720;DHT22;27405;53.316;-6.294;2023-09-19T07:10:42;16.30;99.90
41720;DHT22;27405;53.316;-6.294;2023-09-19T07:13:14;16.30;99.90
41720;DHT22;27405;53.316;-6.294;2023-09-19T07:15:42;16.30;99.90
41720;DHT22;27405;53.316;-6.294;2023-09-19T07:18:13;16.40;99.90
41720;DHT22;27405;53.316;-6.294;2023-09-19T07:20:40;16.40;99.90
41720;DHT22;27405;53.316;-6.294;2023-09-19T07:23:11;16.40;99.90
41720;DHT22;27405;53.316;-6.294;2023-09-19T07:25:39;16.50;99.90
41720;DHT22;27405;53.316;-6.294;2023-09-19T07:28:06;16.50;99.90
41720;DHT22;27405;53.316;-6.294;2023-09-19T07:30:35;16.50;99.90
41720;DHT22;27405;53.316;-6.294;2023-09-19T07:33:01;16.60;99.90
41720;DHT22;27405;53.316;-6.294;2023-09-19T07:35:28;16.60;99.90
41720;DHT22;27405;53.316;-6.294;2023-09-19T07:37:53;16.60;99.90
41720;DHT22;27405;53.316;-6.294;2023-09-19T07:40:20;16.60;99.90
41720;DHT22;27405;53.316;-6.294;2023-09-19T07:42:52;16.70;99.90
41720;DHT22;27405;53.316;-6.294;2023-09-19T07:45:18;16.70;99.90
41720;DHT22;27405;53.316;-6.294;2023-09-19T07:47:48;16.70;99.90
41720;DHT22;27405;53.316;-6.294;2023-09-19T07:50:14;16.80;99.90
41720;DHT22;27405;53.316;-6.294;2023-09-19T07:52:41;16.80;99.90
41720;DHT22;27405;53.316;-6.294;2023-09-19T07:55:08;16.80;99.90
41720;DHT22;27405;53.316;-6.294;2023-09-19T07:57:35;16.90;99.90
41720;DHT22;27405;53.316;-6.294;2023-09-19T08:00:01;16.90;99.90
41720;DHT22;27405;53.316;-6.294;2023-09-19T08:02:34;16.90;99.90
41720;DHT22;27405;53.316;-6.294;2023-09-19T08:04:59;17.00;99.90
41720;DHT22;27405;53.316;-6.294;2023-09-19T08:07:26;17.00;99.90
41720;DHT22;27405;53.316;-6.294;2023-09-19T08:09:51;17.10;99.90
41720;DHT22;27405;53.316;-6.294;2023-09-19T08:12:17;17.20;99.90
41720;DHT22;27405;53.316;-6.294;2023-09-19T08:14:45;17.20;99.90
41720;DHT22;27405;53.316;-6.294;2023-09-19T08:17:12;17.30;99.90
41720;DHT22;27405;53.316;-6.294;2023-09-19T08:19:38;17.30;99.90
41720;DHT22;27405;53.316;-6.294;2023-09-19T08:22:06;17.40;99.90
41720;DHT22;27405;53.316;-6.294;2023-09-19T08:24:31;17.40;99.90
41720;DHT22;27405;53.316;-6.294;2023-09-19T08:26:58;17.40;99.90
41720;DHT22;27405;53.316;-6.294;2023-09-19T08:29:25;17.50;99.90
41720;DHT22;27405;53.316;-6.294;2023-09-19T08:31:57;17.50;99.90
41720;DHT22;27405;53.316;-6.294;2023-09-19T08:34:24;17.60;99.90
41720;DHT22;27405;53.316;-6.294;2023-09-19T08:36:53;17.70;99.90
41720;DHT22;27405;53.316;-6.294;2023-09-19T08:39:23;17.80;99.90
41720;DHT22;27405;53.316;-6.294;2023-09-19T08:41:48;17.90;99.90
41720;DHT22;27405;53.316;-6.294;2023-09-19T08:44:15;18.00;99.90
41720;DHT22;27405;53.316;-6.294;2023-09-19T08:46:41;18.10;99.90
41720;DHT22;27405;53.316;-6.294;2023-09-19T08:49:29;18.20;99.90
41720;DHT22;27405;53.316;-6.294;2023-09-19T08:52:28;18.30;99.90
41720;DHT22;27405;53.316;-6.294;2023-09-19T08:54:58;18.40;99.90
41720;DHT22;27405;53.316;-6.294;2023-09-19T08:57:29;18.50;99.90
41720;DHT22;27405;53.316;-6.294;2023-09-19T08:59:57;18.50;99.90
41720;DHT22;27405;53.316;-6.294;2023-09-19T09:02:23;18.60;99.90
41720;DHT22;27405;53.316;-6.294;2023-09-19T09:04:50;18.60;99.90
41720;DHT22;27405;53.316;-6.294;2023-09-19T09:07:17;18.60;99.90
41720;DHT22;27405;53.316;-6.294;2023-09-19T09:09:44;18.60;99.90
41720;DHT22;27405;53.316;-6.294;2023-09-19T09:12:14;18.60;99.90
41720;DHT22;27405;53.316;-6.294;2023-09-19T09:14:44;18.60;99.90
41720;DHT22;27405;53.316;-6.294;2023-09-19T09:17:11;18.50;99.90
41720;DHT22;27405;53.316;-6.294;2023-09-19T09:19:37;18.50;99.90
41720;DHT22;27405;53.316;-6.294;2023-09-19T09:22:10;18.50;99.90
41720;DHT22;27405;53.316;-6.294;2023-09-19T09:24:37;18.50;99.90
41720;DHT22;27405;53.316;-6.294;2023-09-19T09:27:05;18.50;99.90
41720;DHT22;27405;53.316;-6.294;2023-09-19T09:29:45;18.50;99.90
41720;DHT22;27405;53.316;-6.294;2023-09-19T09:34:44;18.40;99.90
41720;DHT22;27405;53.316;-6.294;2023-09-19T09:37:17;18.30;99.90
41720;DHT22;27405;53.316;-6.294;2023-09-19T09:39:50;18.30;99.90
41720;DHT22;27405;53.316;-6.294;2023-09-19T09:42:35;18.20;99.90
41720;DHT22;27405;53.316;-6.294;2023-09-19T09:45:18;18.20;99.90
41720;DHT22;27405;53.316;-6.294;2023-09-19T09:48:04;18.10;99.90
41720;DHT22;27405;53.316;-6.294;2023-09-19T09:50:46;18.10;99.90
41720;DHT22;27405;53.316;-6.294;2023-09-19T09:53:29;18.10;99.90
41720;DHT22;27405;53.316;-6.294;2023-09-19T09:58:26;18.20;99.90
41720;DHT22;27405;53.316;-6.294;2023-09-19T10:00:58;18.20;99.90
41720;DHT22;27405;53.316;-6.294;2023-09-19T10:03:35;18.30;99.90
41720;DHT22;27405;53.316;-6.294;2023-09-19T10:06:09;18.30;99.90
41720;DHT22;27405;53.316;-6.294;2023-09-19T10:09:00;18.40;99.90
41720;DHT22;27405;53.316;-6.294;2023-09-19T10:11:44;18.40;99.90
41720;DHT22;27405;53.316;-6.294;2023-09-19T10:14:17;18.40;99.90
41720;DHT22;27405;53.316;-6.294;2023-09-19T10:16:48;18.50;99.90
41720;DHT22;27405;53.316;-6.294;2023-09-19T10:19:23;18.50;99.90
41720;DHT22;27405;53.316;-6.294;2023-09-19T10:21:55;18.50;99.90
41720;DHT22;27405;53.316;-6.294;2023-09-19T10:24:22;18.50;99.90
41720;DHT22;27405;53.316;-6.294;2023-09-19T10:26:53;18.40;99.90
41720;DHT22;27405;53.316;-6.294;2023-09-19T10:29:21;18.50;99.90
41720;DHT22;27405;53.316;-6.294;2023-09-19T10:31:47;18.50;99.90
41720;DHT22;27405;53.316;-6.294;2023-09-19T10:34:17;18.50;99.90
41720;DHT22;27405;53.316;-6.294;2023-09-19T10:36:45;18.60;99.90
41720;DHT22;27405;53.316;-6.294;2023-09-19T10:39:15;18.70;99.90
41720;DHT22;27405;53.316;-6.294;2023-09-19T10:41:50;18.70;99.90
41720;DHT22;27405;53.316;-6.294;2023-09-19T10:44:24;18.80;99.90
41720;DHT22;27405;53.316;-6.294;2023-09-19T10:46:51;19.00;99.90
41720;DHT22;27405;53.316;-6.294;2023-09-19T10:49:19;19.10;99.90
41720;DHT22;27405;53.316;-6.294;2023-09-19T10:51:45;19.30;99.90
41720;DHT22;27405;53.316;-6.294;2023-09-19T10:54:16;19.30;99.90
41720;DHT22;27405;53.316;-6.294;2023-09-19T10:56:48;19.30;99.90
41720;DHT22;27405;53.316;-6.294;2023-09-19T10:59:17;19.30;99.90
41720;DHT22;27405;53.316;-6.294;2023-09-19T11:01:53;19.20;99.90
41720;DHT22;27405;53.316;-6.294;2023-09-19T11:04:33;19.10;99.90
41720;DHT22;27405;53.316;-6.294;2023-09-19T11:07:05;19.00;99.90
41720;DHT22;27405;53.316;-6.294;2023-09-19T11:09:55;18.90;99.90
41720;DHT22;27405;53.316;-6.294;2023-09-19T11:15:08;18.80;99.90
41720;DHT22;27405;53.316;-6.294;2023-09-19T11:17:36;18.80;99.90
41720;DHT22;27405;53.316;-6.294;2023-09-19T11:30:51;18.80;99.90
41720;DHT22;27405;53.316;-6.294;2023-09-19T11:33:30;18.90;99.90
41720;DHT22;27405;53.316;-6.294;2023-09-19T11:36:03;18.90;99.90
41720;DHT22;27405;53.316;-6.294;2023-09-19T11:43:52;19.10;99.90
41720;DHT22;27405;53.316;-6.294;2023-09-19T11:46:20;19.10;99.90
41720;DHT22;27405;53.316;-6.294;2023-09-19T11:48:49;19.00;99.90
41720;DHT22;27405;53.316;-6.294;2023-09-19T11:53:52;19.00;99.90
41720;DHT22;27405;53.316;-6.294;2023-09-19T11:56:27;19.10;99.90
41720;DHT22;27405;53.316;-6.294;2023-09-19T11:58:55;19.20;99.90
41720;DHT22;27405;53.316;-6.294;2023-09-19T12:01:28;19.20;99.90
41720;DHT22;27405;53.316;-6.294;2023-09-19T12:03:57;19.20;99.90
41720;DHT22;27405;53.316;-6.294;2023-09-19T12:06:24;19.30;99.90
41720;DHT22;27405;53.316;-6.294;2023-09-19T12:08:51;19.30;99.90
41720;DHT22;27405;53.316;-6.294;2023-09-19T12:11:19;19.30;99.90
41720;DHT22;27405;53.316;-6.294;2023-09-19T12:13:47;19.40;99.90
41720;DHT22;27405;53.316;-6.294;2023-09-19T12:16:20;19.40;99.90
41720;DHT22;27405;53.316;-6.294;2023-09-19T12:18:48;19.50;99.90
41720;DHT22;27405;53.316;-6.294;2023-09-19T12:21:33;19.50;99.90
41720;DHT22;27405;53.316;-6.294;2023-09-19T12:26:43;19.70;99.90
41720;DHT22;27405;53.316;-6.294;2023-09-19T12:29:17;19.90;99.90
41720;DHT22;27405;53.316;-6.294;2023-09-19T12:31:54;20.00;99.90
41720;DHT22;27405;53.316;-6.294;2023-09-19T12:34:32;20.00;99.90
41720;DHT22;27405;53.316;-6.294;2023-09-19T12:39:45;20.20;99.90
41720;DHT22;27405;53.316;-6.294;2023-09-19T12:42:15;20.20;99.90
41720;DHT22;27405;53.316;-6.294;2023-09-19T12:44:46;20.20;99.90
41720;DHT22;27405;53.316;-6.294;2023-09-19T12:47:14;20.20;99.90
41720;DHT22;27405;53.316;-6.294;2023-09-19T12:50:11;20.20;99.90
41720;DHT22;27405;53.316;-6.294;2023-09-19T12:52:44;20.10;99.90
41720;DHT22;27405;53.316;-6.294;2023-09-19T12:55:29;20.10;99.90
41720;DHT22;27405;53.316;-6.294;2023-09-19T12:58:12;20.10;99.90
41720;DHT22;27405;53.316;-6.294;2023-09-19T13:00:42;20.00;99.90
41720;DHT22;27405;53.316;-6.294;2023-09-19T13:03:15;20.00;99.90
41720;DHT22;27405;53.316;-6.294;2023-09-19T13:06:10;20.00;99.90
41720;DHT22;27405;53.316;-6.294;2023-09-19T13:08:40;20.10;99.90
41720;DHT22;27405;53.316;-6.294;2023-09-19T13:11:17;20.20;99.90
41720;DHT22;27405;53.316;-6.294;2023-09-19T13:13:49;20.20;99.90
41720;DHT22;27405;53.316;-6.294;2023-09-19T13:16:19;20.40;99.90
41720;DHT22;27405;53.316;-6.294;2023-09-19T13:18:52;20.70;99.90
41720;DHT22;27405;53.316;-6.294;2023-09-19T13:21:34;20.80;99.90
41720;DHT22;27405;53.316;-6.294;2023-09-19T13:24:23;20.80;99.90
41720;DHT22;27405;53.316;-6.294;2023-09-19T13:26:51;20.80;99.90
41720;DHT22;27405;53.316;-6.294;2023-09-19T13:29:17;20.70;99.90
41720;DHT22;27405;53.316;-6.294;2023-09-19T13:31:50;20.60;99.90
41720;DHT22;27405;53.316;-6.294;2023-09-19T13:34:19;20.60;99.90
41720;DHT22;27405;53.316;-6.294;2023-09-19T13:36:45;20.60;99.90
41720;DHT22;27405;53.316;-6.294;2023-09-19T13:39:14;20.60;99.90
41720;DHT22;27405;53.316;-6.294;2023-09-19T13:41:41;20.50;99.90
41720;DHT22;27405;53.316;-6.294;2023-09-19T13:44:08;20.40;99.90
41720;DHT22;27405;53.316;-6.294;2023-09-19T13:46:36;20.30;99.90
41720;DHT22;27405;53.316;-6.294;2023-09-19T13:49:02;20.20;99.90
41720;DHT22;27405;53.316;-6.294;2023-09-19T13:51:31;20.30;99.90
41720;DHT22;27405;53.316;-6.294;2023-09-19T13:53:57;20.20;99.90
41720;DHT22;27405;53.316;-6.294;2023-09-19T13:56:23;20.20;99.90
41720;DHT22;27405;53.316;-6.294;2023-09-19T13:58:49;20.30;99.90
41720;DHT22;27405;53.316;-6.294;2023-09-19T14:01:15;20.30;99.90
41720;DHT22;27405;53.316;-6.294;2023-09-19T14:03:41;20.50;99.90
41720;DHT22;27405;53.316;-6.294;2023-09-19T14:06:12;20.70;99.90
41720;DHT22;27405;53.316;-6.294;2023-09-19T14:08:38;20.80;99.90
41720;DHT22;27405;53.316;-6.294;2023-09-19T14:11:10;20.70;99.90
41720;DHT22;27405;53.316;-6.294;2023-09-19T14:13:36;20.70;99.90
41720;DHT22;27405;53.316;-6.294;2023-09-19T14:16:06;20.60;99.90
41720;DHT22;27405;53.316;-6.294;2023-09-19T14:18:35;20.40;99.90
41720;DHT22;27405;53.316;-6.294;2023-09-19T14:21:04;20.40;99.90
41720;DHT22;27405;53.316;-6.294;2023-09-19T14:23:35;20.50;99.90
41720;DHT22;27405;53.316;-6.294;2023-09-19T14:26:01;20.50;99.90
41720;DHT22;27405;53.316;-6.294;2023-09-19T14:28:27;20.40;99.90
41720;DHT22;27405;53.316;-6.294;2023-09-19T14:30:55;20.40;99.90
41720;DHT22;27405;53.316;-6.294;2023-09-19T14:33:21;20.30;99.90
41720;DHT22;27405;53.316;-6.294;2023-09-19T14:35:46;20.30;99.90
41720;DHT22;27405;53.316;-6.294;2023-09-19T14:38:12;20.20;99.90
41720;DHT22;27405;53.316;-6.294;2023-09-19T14:40:37;20.20;99.90
41720;DHT22;27405;53.316;-6.294;2023-09-19T14:43:05;20.30;99.90
41720;DHT22;27405;53.316;-6.294;2023-09-19T14:45:30;20.30;99.90
41720;DHT22;27405;53.316;-6.294;2023-09-19T14:47:57;20.60;99.90
41720;DHT22;27405;53.316;-6.294;2023-09-19T14:50:22;20.80;99.90
41720;DHT22;27405;53.316;-6.294;2023-09-19T14:52:48;20.90;99.90
41720;DHT22;27405;53.316;-6.294;2023-09-19T14:55:17;21.00;99.90
41720;DHT22;27405;53.316;-6.294;2023-09-19T14:57:49;21.10;99.90
41720;DHT22;27405;53.316;-6.294;2023-09-19T15:00:16;21.20;99.90
41720;DHT22;27405;53.316;-6.294;2023-09-19T15:02:42;21.20;99.90
41720;DHT22;27405;53.316;-6.294;2023-09-19T15:05:10;21.20;99.90
41720;DHT22;27405;53.316;-6.294;2023-09-19T15:07:36;21.10;99.90
41720;DHT22;27405;53.316;-6.294;2023-09-19T15:10:04;21.00;99.90
41720;DHT22;27405;53.316;-6.294;2023-09-19T15:12:32;21.00;99.90
41720;DHT22;27405;53.316;-6.294;2023-09-19T15:14:58;20.90;99.90
41720;DHT22;27405;53.316;-6.294;2023-09-19T15:17:24;20.90;99.90
41720;DHT22;27405;53.316;-6.294;2023-09-19T15:19:50;20.80;99.90
41720;DHT22;27405;53.316;-6.294;2023-09-19T15:22:16;20.70;99.90
41720;DHT22;27405;53.316;-6.294;2023-09-19T15:24:42;20.70;99.90
41720;DHT22;27405;53.316;-6.294;2023-09-19T15:27:08;20.60;99.90
41720;DHT22;27405;53.316;-6.294;2023-09-19T15:29:34;20.60;99.90
41720;DHT22;27405;53.316;-6.294;2023-09-19T15:31:59;20.50;99.90
41720;DHT22;27405;53.316;-6.294;2023-09-19T15:34:28;20.50;99.90
41720;DHT22;27405;53.316;-6.294;2023-09-19T15:36:54;20.40;99.90
41720;DHT22;27405;53.316;-6.294;2023-09-19T15:39:20;20.40;99.90
41720;DHT22;27405;53.316;-6.294;2023-09-19T15:41:48;20.40;99.90
41720;DHT22;27405;53.316;-6.294;2023-09-19T15:44:18;20.50;99.90
41720;DHT22;27405;53.316;-6.294;2023-09-19T15:46:45;20.50;99.90
41720;DHT22;27405;53.316;-6.294;2023-09-19T15:49:11;20.60;99.90
41720;DHT22;27405;53.316;-6.294;2023-09-19T15:51:37;20.60;99.90
41720;DHT22;27405;53.316;-6.294;2023-09-19T15:54:08;20.70;99.90
41720;DHT22;27405;53.316;-6.294;2023-09-19T15:56:35;20.70;99.90
41720;DHT22;27405;53.316;-6.294;2023-09-19T15:59:00;20.80;99.90
41720;DHT22;27405;53.316;-6.294;2023-09-19T16:01:26;20.80;99.90
41720;DHT22;27405;53.316;-6.294;2023-09-19T16:03:53;20.80;99.90
41720;DHT22;27405;53.316;-6.294;2023-09-19T16:06:23;20.70;99.90
41720;DHT22;27405;53.316;-6.294;2023-09-19T16:08:51;20.70;99.90
41720;DHT22;27405;53.316;-6.294;2023-09-19T16:11:18;20.70;99.90
41720;DHT22;27405;53.316;-6.294;2023-09-19T16:13:45;20.70;99.90
41720;DHT22;27405;53.316;-6.294;2023-09-19T16:16:12;20.60;99.90